Time;durP1;ratioP1;P1;durP2;ratioP2;P2;SDS_P1;SDS_P2;PMS_P1;PMS_P2;Temp;Humidity;BMP_temperature;BMP_pressure;BME280_temperature;BME280_humidity;BME280_pressure;Samples;Min_cycle;Max_cycle;Signal;HPM_P1;HPM_P2
2023/04/30 00:01:20;;;;;;;13.77;5.65;;;;;;;;;;5021035;28;20406;-78
2023/04/30 00:03:46;;;;;;;15.07;6.07;;;;;;;;;;5033442;28;20444;-79
2023/04/30 00:06:12;;;;;;;14.70;5.95;;;;;;;;;;5024933;28;20437;-78
2023/04/30 00:08:38;;;;;;;14.18;6.30;;;;;;;;;;5017302;28;20428;-78
2023/04/30 00:11:04;;;;;;;12.52;5.90;;;;;;;;;;5031922;28;20467;-78
2023/04/30 00:13:30;;;;;;;14.35;5.72;;;;;;;;;;5032657;28;20493;-78
2023/04/30 00:15:56;;;;;;;10.73;5.60;;;;;;;;;;5037274;28;20437;-78
2023/04/30 00:18:22;;;;;;;11.07;5.82;;;;;;;;;;5032331;28;20618;-79
2023/04/30 00:20:50;;;;;;;12.70;6.00;;;;;;;;;;5033437;28;20419;-79
2023/04/30 00:23:16;;;;;;;16.85;5.88;;;;;;;;;;4998609;28;20913;-78
2023/04/30 00:25:42;;;;;;;11.30;5.28;;;;;;;;;;5028651;28;20453;-78
2023/04/30 00:28:08;;;;;;;12.13;5.50;;;;;;;;;;5015193;28;20407;-79
2023/04/30 00:30:34;;;;;;;11.55;5.90;;;;;;;;;;5031730;28;20426;-78
2023/04/30 00:33:00;;;;;;;11.85;5.70;;;;;;;;;;5014197;28;20426;-78
2023/04/30 00:35:27;;;;;;;14.13;5.53;;;;;;;;;;5010058;28;20429;-79
2023/04/30 00:37:53;;;;;;;14.45;6.22;;;;;;;;;;5013447;28;20792;-78
2023/04/30 00:40:19;;;;;;;10.95;5.45;;;7.30;99.90;;;;;;4999685;28;20769;-78
2023/04/30 00:42:47;;;;;;;11.88;5.90;;;;;;;;;;5014962;28;20493;-78
2023/04/30 00:45:13;;;;;;;11.80;5.78;;;;;;;;;;5015020;28;20426;-78
2023/04/30 00:47:40;;;;;;;9.57;5.50;;;;;;;;;;5027959;28;20497;-79
2023/04/30 00:50:06;;;;;;;9.82;5.45;;;;;;;;;;5001205;28;20417;-79
2023/04/30 00:52:32;;;;;;;11.88;6.07;;;;;;;;;;5029517;28;20457;-79
2023/04/30 00:54:58;;;;;;;10.90;6.00;;;;;;;;;;5011942;28;20399;-79
2023/04/30 00:57:24;;;;;;;13.43;6.43;;;;;;;;;;5021755;28;20460;-79
2023/04/30 00:59:50;;;;;;;12.98;6.43;;;;;;;;;;4985408;28;20427;-78
2023/04/30 01:02:17;;;;;;;12.27;6.50;;;;;;;;;;5013405;28;20419;-78
2023/04/30 01:04:43;;;;;;;13.05;6.32;;;;;;;;;;5030696;28;20472;-78
2023/04/30 01:07:09;;;;;;;15.20;6.65;;;;;;;;;;5033973;28;20508;-78
2023/04/30 01:09:36;;;;;;;10.43;6.45;;;;;;;;;;5013913;28;20475;-79
2023/04/30 01:12:10;;;;;;;14.65;7.20;;;;;;;;;;5029083;28;20506;-79
2023/04/30 01:14:36;;;;;;;14.50;6.90;;;;;;;;;;5030778;28;20530;-79
2023/04/30 01:17:12;;;;;;;12.70;6.50;;;;;;;;;;5014131;28;20421;-79
2023/04/30 01:19:45;;;;;;;16.05;7.38;;;;;;;;;;5028508;28;20791;-80
2023/04/30 01:22:30;;;;;;;11.75;7.30;;;;;;;;;;5023145;28;20444;-80
2023/04/30 01:24:56;;;;;;;13.48;6.60;;;;;;;;;;5024482;28;20498;-80
2023/04/30 01:27:31;;;;;;;13.25;6.57;;;;;;;;;;5029196;28;20422;-81
2023/04/30 01:29:57;;;;;;;15.13;6.82;;;;;;;;;;5017767;28;20415;-80
2023/04/30 01:32:23;;;;;;;13.27;7.22;;;;;;;;;;5031996;28;20419;-80
2023/04/30 01:34:49;;;;;;;15.00;7.15;;;;;;;;;;5028115;28;20442;-80
2023/04/30 01:37:27;;;;;;;13.45;7.45;;;;;;;;;;5016517;28;20500;-80
2023/04/30 01:40:04;;;;;;;12.38;7.00;;;;;;;;;;4998488;28;20435;-80
2023/04/30 01:42:38;;;;;;;13.15;7.00;;;;;;;;;;4995442;28;20405;-80
2023/04/30 01:45:12;;;;;;;17.73;7.77;;;;;;;;;;5022191;28;20512;-78
2023/04/30 01:47:48;;;;;;;14.13;7.50;;;;;;;;;;5042244;28;20622;-77
2023/04/30 01:50:37;;;;;;;11.95;7.22;;;6.40;99.90;;;;;;5017695;28;20424;-77
2023/04/30 01:53:06;;;;;;;12.27;6.85;;;;;;;;;;5011510;28;20413;-77
2023/04/30 01:55:32;;;;;;;15.35;7.22;;;;;;;;;;5021004;28;20486;-77
2023/04/30 01:57:59;;;;;;;13.10;6.20;;;;;;;;;;5021062;28;20425;-77
2023/04/30 02:00:26;;;;;;;14.85;6.72;;;;;;;;;;5008237;28;20417;-77
2023/04/30 02:02:52;;;;;;;11.20;6.45;;;;;;;;;;5012810;28;20423;-77
2023/04/30 02:05:18;;;;;;;14.10;7.47;;;;;;;;;;5028533;28;20927;-78
2023/04/30 02:07:46;;;;;;;18.37;8.77;;;;;;;;;;5033073;28;20470;-78
2023/04/30 02:10:12;;;;;;;19.52;8.50;;;;;;;;;;5011558;28;20943;-78
2023/04/30 02:12:38;;;;;;;17.75;9.27;;;;;;;;;;5005220;28;20511;-78
2023/04/30 02:15:05;;;;;;;17.17;9.70;;;;;;;;;;5018784;28;20415;-77
2023/04/30 02:17:31;;;;;;;20.08;9.60;;;;;;;;;;4997710;28;20415;-78
2023/04/30 02:19:58;;;;;;;16.70;9.13;;;6.70;99.90;;;;;;5016735;28;20445;-78
2023/04/30 02:22:24;;;;;;;15.30;8.02;;;;;;;;;;5029379;28;20951;-78
2023/04/30 02:24:52;;;;;;;16.88;8.60;;;;;;;;;;5027438;28;20980;-77
2023/04/30 02:27:19;;;;;;;15.03;8.53;;;;;;;;;;5029093;28;20418;-77
2023/04/30 02:29:45;;;;;;;15.30;8.13;;;;;;;;;;5026255;28;20413;-77
2023/04/30 02:32:11;;;;;;;15.02;8.38;;;;;;;;;;5008977;28;20922;-77
2023/04/30 02:34:37;;;;;;;12.35;6.80;;;;;;;;;;5011163;28;20422;-77
2023/04/30 02:37:03;;;;;;;12.25;6.63;;;;;;;;;;5011660;28;20428;-77
2023/04/30 02:39:29;;;;;;;15.43;7.38;;;;;;;;;;5011752;28;20419;-77
2023/04/30 02:41:55;;;;;;;15.20;7.15;;;;;;;;;;5013795;28;20473;-78
2023/04/30 02:44:21;;;;;;;11.82;6.75;;;;;;;;;;5009553;28;20452;-77
2023/04/30 02:46:47;;;;;;;13.57;7.00;;;;;;;;;;5029891;28;20405;-78
2023/04/30 02:49:13;;;;;;;10.35;6.43;;;;;;;;;;5002306;28;20415;-78
2023/04/30 02:51:39;;;;;;;11.63;7.07;;;;;;;;;;5027776;28;20457;-78
2023/04/30 02:54:05;;;;;;;16.05;7.72;;;;;;;;;;5010181;28;20415;-77
2023/04/30 02:56:32;;;;;;;19.38;7.38;;;;;;;;;;5012163;28;20427;-77
2023/04/30 02:58:58;;;;;;;14.20;7.33;;;;;;;;;;5023800;28;20501;-78
2023/04/30 03:01:24;;;;;;;17.05;7.50;;;;;;;;;;5027263;28;20797;-78
2023/04/30 03:03:50;;;;;;;12.95;7.38;;;;;;;;;;5012871;28;20763;-78
2023/04/30 03:06:16;;;;;;;13.93;7.00;;;;;;;;;;4981753;28;20421;-78
2023/04/30 03:08:42;;;;;;;13.35;6.25;;;;;;;;;;5003918;28;20994;-78
2023/04/30 03:11:08;;;;;;;19.52;6.97;;;;;;;;;;5027700;28;20767;-77
2023/04/30 03:13:34;;;;;;;14.05;6.28;;;;;;;;;;5027366;28;20427;-77
2023/04/30 03:16:03;;;;;;;15.70;6.43;;;;;;;;;;5024427;28;20435;-80
2023/04/30 03:18:29;;;;;;;11.75;6.40;;;;;;;;;;5032138;28;20929;-80
2023/04/30 03:20:56;;;;;;;10.97;5.97;;;;;;;;;;5009378;28;20904;-80
2023/04/30 03:23:22;;;;;;;14.20;6.85;;;;;;;;;;5004289;28;20546;-80
2023/04/30 03:25:49;;;;;;;13.35;6.07;;;;;;;;;;5030816;28;20426;-80
2023/04/30 03:28:15;;;;;;;16.38;7.00;;;;;;;;;;5011921;28;20425;-80
2023/04/30 03:30:41;;;;;;;16.30;7.50;;;;;;;;;;5013681;28;20415;-80
2023/04/30 03:33:07;;;;;;;15.35;7.10;;;;;;;;;;5013567;28;20412;-80
2023/04/30 03:35:34;;;;;;;13.50;7.30;;;;;;;;;;5017901;28;20456;-80
2023/04/30 03:38:00;;;;;;;18.98;7.80;;;;;;;;;;4994231;28;20586;-80
2023/04/30 03:40:26;;;;;;;15.13;7.67;;;;;;;;;;5033418;28;20811;-80
2023/04/30 03:42:52;;;;;;;16.65;8.23;;;;;;;;;;5033469;28;20407;-80
2023/04/30 03:45:18;;;;;;;13.80;7.43;;;;;;;;;;5015403;28;20419;-80
2023/04/30 03:47:45;;;;;;;16.13;7.60;;;;;;;;;;5034714;28;20420;-80
2023/04/30 03:50:11;;;;;;;14.35;7.50;;;;;;;;;;5013783;28;20424;-80
2023/04/30 03:52:37;;;;;;;15.60;7.38;;;;;;;;;;5030021;28;20553;-79
2023/04/30 03:55:04;;;;;;;12.35;7.13;;;;;;;;;;5040025;28;20415;-80
2023/04/30 03:57:30;;;;;;;11.55;7.20;;;;;;;;;;5031776;28;20474;-80
2023/04/30 03:59:56;;;;;;;14.02;7.32;;;;;;;;;;5034950;28;20413;-80
2023/04/30 04:02:22;;;;;;;15.00;6.68;;;;;;;;;;5034966;28;20413;-79
2023/04/30 04:04:49;;;;;;;18.42;7.43;;;;;;;;;;5037670;28;20421;-79
2023/04/30 04:07:15;;;;;;;14.80;7.43;;;;;;;;;;5043193;28;20419;-80
2023/04/30 04:09:41;;;;;;;16.60;8.80;;;;;;;;;;5032581;28;20431;-80
2023/04/30 04:12:07;;;;;;;16.35;6.80;;;;;;;;;;5033465;28;20441;-80
2023/04/30 04:14:33;;;;;;;12.55;6.80;;;;;;;;;;5010977;28;20479;-79
2023/04/30 04:17:00;;;;;;;12.95;6.68;;;;;;;;;;5016144;28;20429;-80
2023/04/30 04:19:26;;;;;;;11.25;6.40;;;;;;;;;;5041007;28;20525;-79
2023/04/30 04:21:53;;;;;;;13.95;7.97;;;;;;;;;;5024923;28;20428;-80
2023/04/30 04:24:19;;;;;;;12.02;6.70;;;;;;;;;;5031170;28;20415;-80
2023/04/30 04:26:45;;;;;;;12.50;7.10;;;;;;;;;;5019762;28;20461;-80
2023/04/30 04:29:11;;;;;;;14.52;6.60;;;;;;;;;;5031106;28;20423;-80
2023/04/30 04:31:40;;;;;;;13.38;6.93;;;;;;;;;;5029457;28;20908;-80
2023/04/30 04:34:06;;;;;;;13.10;7.07;;;;;;;;;;5036734;28;20501;-80
2023/04/30 04:36:33;;;;;;;14.55;6.72;;;;;;;;;;5019720;28;20429;-80
2023/04/30 04:39:02;;;;;;;15.68;7.22;;;;;;;;;;5031636;28;20421;-80
2023/04/30 04:41:29;;;;;;;15.18;7.55;;;;;;;;;;5015085;28;20481;-80
2023/04/30 04:43:55;;;;;;;13.63;7.20;;;;;;;;;;5042968;28;20858;-80
2023/04/30 04:46:22;;;;;;;13.52;7.57;;;;;;;;;;5032905;28;20410;-80
2023/04/30 04:48:48;;;;;;;21.17;9.30;;;;;;;;;;5015948;28;20415;-80
2023/04/30 04:51:14;;;;;;;15.45;8.63;;;;;;;;;;5030868;28;20414;-81
2023/04/30 04:53:40;;;;;;;18.10;8.98;;;;;;;;;;5033728;28;20781;-80
2023/04/30 04:56:07;;;;;;;15.60;8.95;;;;;;;;;;5021139;28;20425;-80
2023/04/30 04:58:34;;;;;;;15.50;8.85;;;;;;;;;;5023888;28;20416;-80
2023/04/30 05:01:00;;;;;;;15.43;8.85;;;;;;;;;;5007569;28;20900;-80
2023/04/30 05:03:30;;;;;;;16.00;8.53;;;;;;;;;;5026983;28;21276;-80
2023/04/30 05:05:56;;;;;;;17.25;8.52;;;;;;;;;;5008780;28;20428;-80
2023/04/30 05:08:26;;;;;;;24.17;9.15;;;;;;;;;;5013932;28;20436;-80
2023/04/30 05:10:52;;;;;;;17.30;9.25;;;;;;;;;;5013550;28;20420;-80
2023/04/30 05:13:18;;;;;;;14.95;8.32;;;;;;;;;;5028702;28;20419;-80
2023/04/30 05:15:44;;;;;;;17.20;8.32;;;;;;;;;;4996268;28;20429;-80
2023/04/30 05:18:10;;;;;;;15.23;8.82;;;;;;;;;;5013646;28;20441;-79
2023/04/30 05:20:36;;;;;;;16.83;8.68;;;;;;;;;;5012485;28;20409;-79
2023/04/30 05:23:02;;;;;;;20.63;8.48;;;;;;;;;;5012408;28;20496;-80
2023/04/30 05:25:28;;;;;;;18.73;8.02;;;;;;;;;;5033430;28;20418;-79
2023/04/30 05:27:55;;;;;;;14.38;7.38;;;;;;;;;;5030850;28;20419;-79
2023/04/30 05:30:21;;;;;;;14.50;7.55;;;;;;;;;;5027110;28;20424;-80
2023/04/30 05:32:50;;;;;;;14.43;7.88;;;;;;;;;;5029522;28;20510;-80
2023/04/30 05:35:17;;;;;;;14.52;8.00;;;;;;;;;;5031264;28;20933;-80
2023/04/30 05:37:43;;;;;;;13.75;7.20;;;;;;;;;;4992365;28;20424;-80
2023/04/30 05:40:09;;;;;;;15.33;7.17;;;;;;;;;;5014327;28;20427;-80
2023/04/30 05:42:37;;;;;;;15.85;9.60;;;;;;;;;;5030565;28;20431;-80
2023/04/30 05:45:03;;;;;;;13.60;7.18;;;;;;;;;;5012715;28;20423;-81
2023/04/30 05:47:30;;;;;;;13.03;6.53;;;;;;;;;;5030463;28;20419;-81
2023/04/30 05:49:56;;;;;;;10.27;6.10;;;;;;;;;;5025117;28;20539;-80
2023/04/30 05:52:22;;;;;;;16.63;6.43;;;;;;;;;;5024823;28;20520;-79
2023/04/30 05:54:49;;;;;;;12.80;5.22;;;;;;;;;;5014755;28;20413;-79
2023/04/30 05:57:15;;;;;;;14.68;5.90;;;;;;;;;;5013890;28;20421;-79
2023/04/30 05:59:42;;;;;;;16.23;5.80;;;;;;;;;;5011687;28;20512;-78
2023/04/30 06:02:08;;;;;;;13.07;5.18;;;7.50;99.90;;;;;;5010468;28;20423;-79
2023/04/30 06:04:35;;;;;;;14.05;5.28;;;;;;;;;;5016439;28;20418;-78
2023/04/30 06:07:01;;;;;;;12.85;5.63;;;;;;;;;;5029151;28;20914;-78
2023/04/30 06:09:27;;;;;;;15.18;5.57;;;;;;;;;;5025831;28;20814;-80
2023/04/30 06:11:54;;;;;;;15.57;5.25;;;;;;;;;;5001058;28;20420;-80
2023/04/30 06:14:24;;;;;;;12.10;5.18;;;;;;;;;;5013138;28;20418;-82
2023/04/30 06:16:50;;;;;;;11.27;4.85;;;;;;;;;;5005146;28;20425;-82
2023/04/30 06:19:16;;;;;;;12.80;4.68;;;;;;;;;;4994127;28;20507;-81
2023/04/30 06:21:44;;;;;;;13.63;5.38;;;;;;;;;;5030540;28;20443;-82
2023/04/30 06:24:10;;;;;;;10.48;4.88;;;;;;;;;;5012336;28;20431;-82
2023/04/30 06:26:36;;;;;;;11.07;5.07;;;;;;;;;;4997294;28;20843;-81
2023/04/30 06:29:02;;;;;;;13.50;5.07;;;;;;;;;;5002923;28;20926;-80
2023/04/30 06:31:28;;;;;;;14.75;5.20;;;;;;;;;;5010822;28;20915;-80
2023/04/30 06:33:55;;;;;;;15.88;5.18;;;;;;;;;;5022442;28;20421;-81
2023/04/30 06:36:21;;;;;;;13.70;5.25;;;;;;;;;;5028146;28;20438;-80
2023/04/30 06:38:47;;;;;;;13.90;5.60;;;;;;;;;;5028324;28;20463;-80
2023/04/30 06:41:14;;;;;;;13.85;5.22;;;;;;;;;;4986786;28;20412;-80
2023/04/30 06:43:40;;;;;;;11.75;4.78;;;;;;;;;;5001984;28;20433;-80
2023/04/30 06:46:06;;;;;;;14.35;5.28;;;;;;;;;;5020381;28;20915;-80
2023/04/30 06:48:32;;;;;;;15.68;5.30;;;;;;;;;;5023064;28;20504;-80
2023/04/30 06:50:58;;;;;;;13.63;4.93;;;;;;;;;;5038744;28;20787;-80
2023/04/30 06:53:25;;;;;;;12.75;4.68;;;;;;;;;;5028118;28;20422;-80
2023/04/30 06:55:51;;;;;;;15.23;5.03;;;;;;;;;;5012456;28;20431;-80
2023/04/30 06:58:18;;;;;;;11.93;4.75;;;;;;;;;;5020438;28;20765;-80
2023/04/30 07:00:44;;;;;;;10.63;4.63;;;;;;;;;;5027031;28;20466;-81
2023/04/30 07:03:11;;;;;;;12.83;4.40;;;;;;;;;;5032260;28;20434;-81
2023/04/30 07:05:37;;;;;;;14.45;4.63;;;;;;;;;;5032375;28;20427;-81
2023/04/30 07:08:04;;;;;;;15.23;4.63;;;;;;;;;;5024632;28;20584;-81
2023/04/30 07:10:31;;;;;;;12.82;4.30;;;;;;;;;;5034006;28;20770;-81
2023/04/30 07:12:58;;;;;;;10.27;4.07;;;;;;;;;;5028415;28;20510;-81
2023/04/30 07:15:24;;;;;;;12.80;4.68;;;;;;;;;;5029199;28;20441;-81
2023/04/30 07:17:50;;;;;;;11.43;4.32;;;;;;;;;;5007799;28;20451;-80
2023/04/30 07:20:16;;;;;;;10.05;4.32;;;;;;;;;;5005898;28;20925;-81
2023/04/30 07:22:44;;;;;;;10.57;4.43;;;;;;;;;;5022205;28;20474;-81
2023/04/30 07:25:11;;;;;;;11.57;4.23;;;;;;;;;;5030643;28;21000;-81
2023/04/30 07:27:37;;;;;;;9.73;4.15;;;;;;;;;;5033554;28;20450;-81
2023/04/30 07:30:04;;;;;;;12.38;4.30;;;;;;;;;;5029474;28;20432;-80
2023/04/30 07:32:30;;;;;;;8.90;3.80;;;;;;;;;;5025048;28;20518;-80
2023/04/30 07:34:57;;;;;;;11.25;4.18;;;;;;;;;;5030249;28;20438;-80
2023/04/30 07:37:26;;;;;;;14.48;4.72;;;;;;;;;;5024615;28;20510;-79
2023/04/30 07:39:52;;;;;;;10.30;4.15;;;;;;;;;;5009995;28;20498;-81
2023/04/30 07:42:18;;;;;;;9.85;3.60;;;;;;;;;;5022149;28;20432;-80
2023/04/30 07:44:45;;;;;;;13.77;3.90;;;;;;;;;;5021290;28;20443;-80
2023/04/30 07:47:11;;;;;;;12.20;4.30;;;;;;;;;;5023659;28;20968;-80
2023/04/30 07:49:38;;;;;;;11.43;3.92;;;;;;;;;;5031529;28;20414;-80
2023/04/30 07:52:04;;;;;;;11.82;3.85;;;;;;;;;;5011337;28;20432;-81
2023/04/30 07:54:31;;;;;;;8.68;3.55;;;;;;;;;;5029247;28;20915;-81
2023/04/30 07:56:57;;;;;;;11.67;3.47;;;;;;;;;;5032478;28;20466;-81
2023/04/30 07:59:23;;;;;;;9.65;3.50;;;;;;;;;;5011515;28;20417;-81
2023/04/30 08:01:50;;;;;;;8.45;3.53;;;;;;;;;;5010779;28;20771;-81
2023/04/30 08:04:16;;;;;;;13.13;3.70;;;;;;;;;;5011045;28;20424;-81
2023/04/30 08:06:42;;;;;;;9.85;3.30;;;;;;;;;;5013041;28;20426;-81
2023/04/30 08:09:08;;;;;;;9.95;3.55;;;;;;;;;;5030347;28;20431;-81
2023/04/30 08:11:34;;;;;;;11.38;3.95;;;;;;;;;;5014309;28;20522;-82
2023/04/30 08:14:00;;;;;;;11.20;3.72;;;;;;;;;;5016495;28;20410;-82
2023/04/30 08:16:26;;;;;;;11.77;3.80;;;;;;;;;;5034193;28;21000;-81
2023/04/30 08:18:52;;;;;;;10.15;3.40;;;;;;;;;;5033616;28;20582;-82
2023/04/30 08:21:18;;;;;;;14.00;4.00;;;;;;;;;;5012000;28;20452;-82
2023/04/30 08:23:45;;;;;;;9.70;3.60;;;;;;;;;;4998576;28;20811;-82
2023/04/30 08:26:11;;;;;;;11.68;3.70;;;;;;;;;;5017797;28;20421;-82
2023/04/30 08:28:37;;;;;;;10.60;3.38;;;;;;;;;;5021530;28;20492;-82
2023/04/30 08:31:03;;;;;;;12.38;3.72;;;;;;;;;;4990382;28;20424;-81
2023/04/30 08:33:30;;;;;;;9.00;3.57;;;;;;;;;;5022594;28;21087;-81
2023/04/30 08:35:57;;;;;;;11.07;3.50;;;;;;;;;;5021905;28;20444;-82
2023/04/30 08:38:24;;;;;;;9.87;3.40;;;;;;;;;;5031162;28;20508;-82
2023/04/30 08:40:56;;;;;;;8.98;3.53;;;;;;;;;;4988385;28;20422;-81
2023/04/30 08:43:23;;;;;;;10.93;3.23;;;;;;;;;;5024938;28;20415;-81
2023/04/30 08:45:50;;;;;;;10.80;3.33;;;;;;;;;;4999597;28;20432;-81
2023/04/30 08:48:18;;;;;;;10.70;3.45;;;;;;;;;;5011457;28;20421;-82
2023/04/30 08:50:44;;;;;;;10.80;3.47;;;;;;;;;;5010335;28;20426;-83
2023/04/30 08:53:13;;;;;;;8.32;2.90;;;;;;;;;;4995344;28;20494;-82
2023/04/30 08:55:40;;;;;;;8.97;3.40;;;;;;;;;;5029412;28;20417;-83
2023/04/30 08:58:06;;;;;;;10.65;3.22;;;;;;;;;;5021365;28;20452;-81
2023/04/30 09:00:32;;;;;;;9.63;3.05;;;;;;;;;;4993438;28;20941;-80
2023/04/30 09:03:00;;;;;;;11.65;3.47;;;11.80;99.90;;;;;;5020223;28;20454;-80
2023/04/30 09:05:26;;;;;;;11.27;3.70;;;;;;;;;;5020299;28;20472;-80
2023/04/30 09:07:52;;;;;;;9.48;3.63;;;;;;;;;;4977431;28;20503;-81
2023/04/30 09:10:21;;;;;;;6.90;3.05;;;;;;;;;;5016937;28;20425;-80
2023/04/30 09:13:01;;;;;;;11.05;3.60;;;;;;;;;;5009956;28;20475;-80
2023/04/30 09:15:28;;;;;;;8.70;3.80;;;12.30;99.90;;;;;;5001513;28;20437;-80
2023/04/30 09:18:07;;;;;;;12.02;4.80;;;;;;;;;;5005235;28;20742;-80
2023/04/30 09:20:33;;;;;;;9.68;3.05;;;;;;;;;;5011437;28;20447;-80
2023/04/30 09:23:07;;;;;;;11.00;3.65;;;;;;;;;;5004027;28;20489;-80
2023/04/30 09:25:40;;;;;;;11.57;3.50;;;12.40;99.90;;;;;;5026466;28;20584;-80
2023/04/30 09:28:08;;;;;;;10.90;3.95;;;12.60;99.90;;;;;;5029907;28;20432;-80
2023/04/30 09:30:34;;;;;;;11.75;3.60;;;;;;;;;;5029501;28;20503;-79
2023/04/30 09:33:01;;;;;;;13.95;3.80;;;;;;;;;;5041765;28;20527;-81
2023/04/30 09:35:33;;;;;;;9.52;3.00;;;12.80;99.90;;;;;;4999450;28;20989;-81
2023/04/30 09:38:03;;;;;;;7.10;2.90;;;12.40;99.90;;;;;;5007868;28;20481;-81
2023/04/30 09:40:37;;;;;;;8.45;3.17;;;12.80;99.90;;;;;;5026419;28;20427;-79
2023/04/30 09:43:04;;;;;;;63.05;6.55;;;;;;;;;;5008860;28;20425;-79
2023/04/30 09:45:40;;;;;;;9.77;2.97;;;;;;;;;;5029590;28;20417;-79
2023/04/30 09:48:08;;;;;;;6.40;2.95;;;13.30;99.90;;;;;;5031070;28;20436;-80
2023/04/30 09:50:41;;;;;;;8.43;3.33;;;;;;;;;;5013993;28;20426;-80
2023/04/30 09:53:08;;;;;;;7.07;3.00;;;;;;;;;;5047750;28;20918;-80
2023/04/30 09:55:35;;;;;;;7.30;3.00;;;;;;;;;;5033117;28;20469;-80
2023/04/30 09:58:03;;;;;;;9.67;3.23;;;;;;;;;;5035627;28;20508;-81
2023/04/30 10:00:31;;;;;;;7.68;3.30;;;;;;;;;;5014841;28;20426;-80
2023/04/30 10:02:58;;;;;;;9.35;4.13;;;;;;;;;;5047124;28;20421;-80
2023/04/30 10:05:24;;;;;;;8.70;3.50;;;;;;;;;;5047010;28;20901;-80
2023/04/30 10:07:50;;;;;;;7.18;3.35;;;;;;;;;;5029443;28;20417;-80
2023/04/30 10:10:16;;;;;;;8.82;3.17;;;;;;;;;;5016209;28;20424;-81
2023/04/30 10:12:44;;;;;;;6.18;2.63;;;;;;;;;;5033859;28;20420;-81
2023/04/30 10:15:15;;;;;;;7.07;3.00;;;;;;;;;;5036974;28;20496;-81
2023/04/30 10:17:44;;;;;;;7.70;2.90;;;;;;;;;;5029946;28;20441;-81
2023/04/30 10:20:12;;;;;;;7.80;3.40;;;;;;;;;;5009909;28;21006;-81
2023/04/30 10:22:40;;;;;;;9.57;3.50;;;;;;;;;;5024234;28;20418;-81
2023/04/30 10:25:10;;;;;;;7.07;3.08;;;;;;;;;;5035103;28;20494;-81
2023/04/30 10:27:36;;;;;;;5.85;3.00;;;;;;;;;;5029623;28;20439;-80
2023/04/30 10:30:02;;;;;;;6.68;2.88;;;;;;;;;;5035027;28;20436;-80
2023/04/30 10:32:33;;;;;;;7.03;3.15;;;;;;;;;;5009082;28;20422;-81
2023/04/30 10:35:12;;;;;;;5.93;3.10;;;;;;;;;;5020477;28;20518;-82
2023/04/30 10:37:58;;;;;;;7.05;2.95;;;15.30;99.90;;;;;;5006825;28;20463;-81
2023/04/30 10:40:27;;;;;;;6.25;3.05;;;;;;;;;;5025007;28;21010;-80
2023/04/30 10:42:54;;;;;;;6.17;2.80;;;;;;;;;;5020668;28;20486;-80
2023/04/30 10:45:35;;;;;;;7.50;3.00;;;;;;;;;;5011810;28;20434;-80
2023/04/30 10:48:08;;;;;;;5.57;2.40;;;14.70;99.90;;;;;;5026871;28;20458;-79
2023/04/30 10:50:40;;;;;;;6.43;2.85;;;;;;;;;;5010599;28;20897;-78
2023/04/30 10:53:06;;;;;;;6.72;2.67;;;;;;;;;;5016960;28;20525;-78
2023/04/30 10:55:38;;;;;;;6.32;2.88;;;;;;;;;;5040394;28;20994;-78
2023/04/30 10:58:22;;;;;;;6.57;2.80;;;;;;;;;;5030418;28;20432;-78
2023/04/30 11:00:51;;;;;;;5.30;2.58;;;;;;;;;;5009905;28;20795;-78
2023/04/30 11:03:17;;;;;;;8.40;3.40;;;;;;;;;;5037081;28;20762;-77
2023/04/30 11:05:43;;;;;;;6.60;2.60;;;;;;;;;;5028166;28;20425;-78
2023/04/30 11:08:12;;;;;;;7.57;3.08;;;;;;;;;;5006328;28;20500;-77
2023/04/30 11:10:38;;;;;;;8.07;3.17;;;;;;;;;;5035026;28;20453;-79
2023/04/30 11:13:05;;;;;;;9.67;3.00;;;;;;;;;;5014138;28;21039;-79
2023/04/30 11:15:42;;;;;;;7.68;3.03;;;15.30;99.90;;;;;;5029088;28;20421;-78
2023/04/30 11:18:08;;;;;;;6.97;2.88;;;;;;;;;;5028774;28;20432;-78
2023/04/30 11:20:40;;;;;;;6.30;3.08;;;15.90;99.90;;;;;;5030634;28;20816;-79
2023/04/30 11:23:10;;;;;;;9.67;3.20;;;;;;;;;;5028753;28;20420;-79
2023/04/30 11:25:40;;;;;;;8.18;2.90;;;;;;;;;;5032561;28;20432;-78
2023/04/30 11:28:06;;;;;;;6.43;3.05;;;15.60;99.90;;;;;;5016508;28;20812;-79
2023/04/30 11:30:33;;;;;;;8.25;2.95;;;;;;;;;;5017543;28;20432;-79
2023/04/30 11:33:00;;;;;;;6.70;2.92;;;15.90;99.90;;;;;;5024301;28;20439;-79
2023/04/30 11:35:27;;;;;;;5.10;2.50;;;16.20;99.90;;;;;;5009625;28;20460;-79
2023/04/30 11:37:55;;;;;;;11.68;3.33;;;16.30;99.90;;;;;;5032031;28;20743;-79
2023/04/30 11:40:21;;;;;;;6.07;2.90;;;;;;;;;;5042433;28;20926;-79
2023/04/30 11:42:47;;;;;;;7.95;2.88;;;;;;;;;;5017065;28;20485;-79
2023/04/30 11:45:22;;;;;;;9.48;2.83;;;16.20;99.90;;;;;;5012539;28;22292;-79
2023/04/30 11:47:49;;;;;;;6.40;3.30;;;;;;;;;;5020487;28;20440;-79
2023/04/30 11:50:26;;;;;;;7.33;2.67;;;17.10;99.90;;;;;;5011657;28;20488;-79
2023/04/30 11:52:53;;;;;;;6.82;2.65;;;16.80;99.90;;;;;;5030391;28;20427;-79
2023/04/30 11:55:21;;;;;;;4.40;2.80;;;16.60;99.90;;;;;;5019598;28;20920;-79
2023/04/30 11:57:49;;;;;;;5.72;2.80;;;16.20;99.90;;;;;;5035182;28;20431;-79
2023/04/30 12:00:20;;;;;;;4.75;2.42;;;16.10;99.90;;;;;;5017096;28;20425;-79
2023/04/30 12:02:47;;;;;;;4.82;2.70;;;;;;;;;;5042699;28;21039;-78
2023/04/30 12:05:18;;;;;;;6.73;2.80;;;16.90;99.90;;;;;;5029857;28;20465;-78
2023/04/30 12:08:11;;;;;;;6.20;2.80;;;;;;;;;;5016803;28;20429;-78
2023/04/30 12:10:37;;;;;;;6.97;3.07;;;;;;;;;;5029568;28;20505;-79
2023/04/30 12:13:04;;;;;;;5.35;2.58;;;;;;;;;;5014237;28;20820;-78
2023/04/30 12:15:31;;;;;;;7.10;2.55;;;16.70;99.90;;;;;;4994700;28;20496;-78
2023/04/30 12:17:58;;;;;;;4.03;2.50;;;;;;;;;;5014592;28;20515;-79
2023/04/30 12:20:27;;;;;;;6.07;2.50;;;17.90;99.90;;;;;;5009412;28;20425;-78
2023/04/30 12:22:53;;;;;;;6.78;2.47;;;;;;;;;;5038080;28;20421;-79
2023/04/30 12:25:21;;;;;;;5.85;2.30;;;;;;;;;;5032018;28;20417;-79
2023/04/30 12:27:49;;;;;;;6.40;2.45;;;17.60;99.90;;;;;;5021604;28;20417;-79
2023/04/30 12:30:23;;;;;;;4.45;2.55;;;18.10;99.90;;;;;;5033404;28;20425;-79
2023/04/30 12:32:50;;;;;;;5.00;2.40;;;;;;;;;;5030580;28;20451;-78
2023/04/30 12:35:21;;;;;;;6.27;2.90;;;17.30;99.90;;;;;;5036966;28;20421;-78
2023/04/30 12:37:50;;;;;;;6.45;2.90;;;17.70;99.90;;;;;;5022936;28;20423;-78
2023/04/30 12:40:20;;;;;;;6.37;2.57;;;18.20;99.90;;;;;;5032319;28;20429;-79
2023/04/30 12:42:46;;;;;;;6.97;2.97;;;17.80;99.90;;;;;;5014805;28;20762;-79
2023/04/30 12:45:13;;;;;;;5.70;2.50;;;;;;;;;;5011531;28;20585;-79
2023/04/30 12:47:40;;;;;;;7.28;2.65;;;;;;;;;;5033483;28;20497;-79
2023/04/30 12:50:13;;;;;;;6.80;2.60;;;;;;;;;;5031206;28;20520;-78
2023/04/30 12:52:39;;;;;;;6.00;2.50;;;17.40;99.90;;;;;;5035962;28;20769;-79
2023/04/30 12:55:19;;;;;;;8.40;2.90;;;;;;;;;;5028281;28;20431;-79
2023/04/30 12:58:13;;;;;;;7.20;2.45;;;18.10;99.90;;;;;;5003988;28;20492;-79
2023/04/30 13:00:47;;;;;;;4.70;2.58;;;;;;;;;;5011620;28;20427;-80
2023/04/30 13:03:13;;;;;;;4.60;2.40;;;;;;;;;;5034178;28;20625;-80
2023/04/30 13:05:40;;;;;;;7.70;2.80;;;;;;;;;;5031866;28;20419;-79
2023/04/30 13:08:06;;;;;;;5.15;2.25;;;17.30;99.90;;;;;;5005547;28;20494;-79
2023/04/30 13:10:32;;;;;;;4.63;2.30;;;17.50;99.90;;;;;;5022731;28;20424;-79
2023/04/30 13:12:59;;;;;;;5.22;2.45;;;;;;;;;;5011019;28;20893;-79
2023/04/30 13:15:25;;;;;;;6.57;2.72;;;;;;;;;;5009183;28;20489;-78
2023/04/30 13:17:52;;;;;;;6.22;2.67;;;;;;;;;;5021775;28;20425;-78
2023/04/30 13:20:18;;;;;;;6.53;2.38;;;17.90;99.90;;;;;;5022376;28;20431;-78
2023/04/30 13:22:44;;;;;;;5.28;2.63;;;;;;;;;;5025646;28;20514;-79
2023/04/30 13:25:11;;;;;;;8.15;2.67;;;17.90;99.90;;;;;;5011444;28;20449;-79
2023/04/30 13:27:37;;;;;;;6.70;2.50;;;;;;;;;;5036193;28;20421;-79
2023/04/30 13:30:03;;;;;;;4.82;2.17;;;;;;;;;;5019534;28;20510;-79
2023/04/30 13:32:29;;;;;;;6.30;2.22;;;;;;;;;;5023509;28;20496;-77
2023/04/30 13:34:57;;;;;;;4.22;2.10;;;;;;;;;;5025090;28;20425;-78
2023/04/30 13:37:23;;;;;;;4.97;2.50;;;;;;;;;;5026922;28;20461;-78
2023/04/30 13:39:49;;;;;;;5.15;2.63;;;18.50;99.90;;;;;;5005088;28;20758;-78
2023/04/30 13:42:14;;;;;;;5.03;2.50;;;18.60;99.90;;;;;;5006724;28;20418;-79
2023/04/30 13:44:41;;;;;;;4.68;2.22;;;;;;;;;;5021895;28;20431;-78
2023/04/30 13:47:09;;;;;;;5.63;2.17;;;;;;;;;;5028997;28;20438;-78
2023/04/30 13:49:35;;;;;;;5.82;2.33;;;;;;;;;;5009768;28;20436;-77
2023/04/30 13:52:01;;;;;;;4.38;2.40;;;;;;;;;;5029651;28;20430;-78
2023/04/30 13:54:27;;;;;;;5.40;2.63;;;;;;;;;;5008015;28;20900;-78
2023/04/30 13:56:54;;;;;;;5.35;2.40;;;;;;;;;;4998535;28;21018;-78
2023/04/30 13:59:20;;;;;;;4.25;2.10;;;;;;;;;;5014788;28;20464;-78
2023/04/30 14:01:46;;;;;;;3.75;1.80;;;;;;;;;;5035290;28;20447;-77
2023/04/30 14:04:12;;;;;;;4.75;2.17;;;;;;;;;;5013247;28;20965;-79
2023/04/30 14:06:39;;;;;;;6.32;2.20;;;;;;;;;;5036272;28;20466;-78
2023/04/30 14:09:05;;;;;;;5.32;2.28;;;17.40;99.90;;;;;;5018719;28;20501;-78
2023/04/30 14:11:31;;;;;;;4.30;1.92;;;;;;;;;;4998023;28;20415;-77
2023/04/30 14:13:57;;;;;;;5.40;2.40;;;;;;;;;;5030648;28;20432;-78
2023/04/30 14:16:24;;;;;;;5.20;2.20;;;18.00;99.90;;;;;;5034523;28;20819;-78
2023/04/30 14:18:50;;;;;;;5.28;2.20;;;;;;;;;;5016838;28;20516;-78
2023/04/30 14:21:16;;;;;;;3.58;2.08;;;;;;;;;;5045560;28;20432;-78